In Rescue
 
Open Full Screen Window  High Contrast Mode
Wind Gusting 15 knots
11
June 22, 2024 9:55 PM CDT
Weather Information
Wind Direction
  320 °
Wind Speed
  11 kt (13 mph)
Wind Gust
  15 kt (17 mph)
Altimeter
29.82 in
Visibility
10 SM
Temperature
18° C
64° F
Dewpoint
17° C
63° F
Humidity
94%
Sky Condition
Overcast @ 1,400 ft
MVFR

METAR KLVN 230255Z AUTO 32011G15KT 10SM OVC014 18/17 A2982 RMK AO2

FAA Disclaimer: The data displayed is for advisory purposes only and is not to be used for flight planning or operations.